William J. Weber — WDC6537 — position and weather

sailwx.info

Track history (hours):
 
Tides and Currents Weather Stations Pressure Air Temp Water Temp Dewpoint Dewpoint Depression Visibility Wind Speed Wind Dir Waves Ship Positions

William J. Weber

Owner: American Commercial Lines LLC, Jeffersonville, IN. More information available from US FCC via Universal Licensing System and Coast Guard Vessel Documentation Center.

Last reported at 2016-May-27 01:17 UTC. Time now 2016-May-27 10:24 UTC.
Position N 29°46' W 095°05'.

Length 23 m; draft 3 m.

Type: Towing. MMSI: 367057640.

Date/timePositionNaut miles runAvg speedWind from/ knotsBaromVisibWave heightAir tempDewpointWater temp
2016-May-27 01:17N 29°46' W 095°05'0 0.1
2016-May-26 20:33N 29°46' W 095°05'0 0.1
2016-May-26 18:18N 29°46' W 095°05'0 0.4
2016-May-26 17:29N 29°46' W 095°05'5 5.8
2016-May-26 16:33N 29°42' W 095°01'7 7.3
2016-May-26 15:33N 29°36' W 094°57'24 4.0
2016-May-26 09:30N 29°32' W 094°29'5 3.9
2016-May-26 08:14N 29°36' W 094°25'4 5.3
2016-May-26 07:24N 29°37' W 094°20'6 5.6
2016-May-26 06:23N 29°40' W 094°14'5 5.3
2016-May-26 05:25N 29°42' W 094°09'3 3.2
2016-May-26 04:33N 29°44' W 094°06'5 4.6
2016-May-26 03:32N 29°46' W 094°02'5 5.1
2016-May-26 02:32N 29°50' W 093°57'8 7.5
2016-May-26 01:31N 29°56' W 093°52'8 0.4
2016-May-25 04:32N 30°01' W 093°59'0 0.0
2016-May-25 02:27N 30°01' W 093°59'0 0.0
2016-May-25 01:33N 30°01' W 093°59'0 0.0
2016-May-24 23:21N 30°01' W 093°59'0 0.0
2016-May-24 21:09N 30°01' W 093°59'0 0.0
2016-May-24 20:26N 30°01' W 093°59'0 0.0
2016-May-24 19:11N 30°01' W 093°59'0 0.0
2016-May-24 16:24N 30°01' W 093°59'0 0.0
2016-May-24 15:32N 30°01' W 093°59'0 0.0
2016-May-24 14:32N 30°01' W 093°59'0 0.0
2016-May-24 13:30N 30°01' W 093°59'0 0.0
2016-May-24 12:30N 30°01' W 093°59'0 0.0
2016-May-24 11:33N 30°01' W 093°59'0 0.0
2016-May-24 10:33N 30°01' W 093°59'0 0.0
2016-May-24 09:33N 30°01' W 093°59'0 0.0
2016-May-24 08:33N 30°01' W 093°59'0 0.0
2016-May-24 07:33N 30°01' W 093°59'0 0.0
2016-May-24 06:33N 30°01' W 093°59'0 0.0
2016-May-24 05:31N 30°01' W 093°59'0 0.0
2016-May-24 04:30N 30°01' W 093°59'0 0.0
2016-May-24 03:32N 30°01' W 093°59'0 0.0
2016-May-24 02:17N 30°01' W 093°59'0 0.0
2016-May-24 01:24N 30°01' W 093°59'0 0.0
2016-May-24 00:30N 30°01' W 093°59'0 0.0
2016-May-23 23:14N 30°01' W 093°59'0 0.0
2016-May-23 16:06N 30°01' W 093°59'0 0.0
2016-May-23 15:12N 30°01' W 093°59'0 0.0
2016-May-23 14:30N 30°01' W 093°59'0 0.0
2016-May-23 13:30N 30°01' W 093°59'0 0.0
2016-May-23 12:27N 30°01' W 093°59'0 0.2
2016-May-23 11:32N 30°01' W 093°59'6 4.7
2016-May-23 10:12N 29°59' W 093°53'4 6.3
2016-May-23 09:30N 29°55' W 093°54'8 6.8
2016-May-23 08:24N 29°49' W 093°59'5 5.4
2016-May-23 07:30N 29°46' W 094°03'8 6.0
2016-May-23 06:06N 29°41' W 094°12'3 6.0
2016-May-23 05:31N 29°39' W 094°15'5 5.5
2016-May-23 04:32N 29°37' W 094°21'29 4.1
2016-May-22 21:33N 29°31' W 094°53'8 8.0
2016-May-22 20:33N 29°38' W 094°58'8 7.6
2016-May-22 19:33N 29°44' W 095°03'3 2.9
2016-May-22 18:33N 29°46' W 095°05'0 0.0
2016-May-22 14:16N 29°46' W 095°05'4 0.2
2016-May-21 17:32N 29°45' W 095°10'4 0.8
2016-May-21 12:27N 29°46' W 095°05'0 0.0
2016-May-21 11:29N 29°46' W 095°05'0 0.0
2016-May-21 04:09N 29°46' W 095°05'0 0.0
2016-May-21 02:31N 29°46' W 095°05'1 0.1
2016-May-20 18:33N 29°46' W 095°06'1 0.3
2016-May-20 16:18N 29°46' W 095°05'4 5.6
2016-May-20 15:32N 29°44' W 095°01'8 7.8
2016-May-20 14:33N 29°37' W 094°57'9 8.8
2016-May-20 13:31N 29°29' W 094°52'26 4.3
2016-May-20 07:21N 29°36' W 094°22'21 5.6
2016-May-20 03:33N 29°47' W 094°01'5 4.5
2016-May-20 02:33N 29°50' W 093°57'10 8.1
2016-May-20 01:21N 29°58' W 093°51'6 6.7
2016-May-20 00:26N 30°01' W 093°58'1 0.1
2016-May-19 12:21N 30°01' W 093°59'0 0.0
2016-May-19 11:34N 30°01' W 093°59'0 0.0
2016-May-19 10:34N 30°01' W 093°59'0 0.0
2016-May-19 09:28N 30°01' W 093°59'0 0.0
2016-May-18 13:34N 30°01' W 093°59'7 6.5
2016-May-18 12:33N 29°59' W 093°52'7 7.5
2016-May-18 11:33N 29°52' W 093°56'6 6.1
2016-May-18 10:30N 29°47' W 094°01'48 2.2
2016-May-17 12:17N 29°26' W 094°50'6 8.8
2016-May-17 11:33N 29°32' W 094°54'8 8.4
2016-May-17 10:32N 29°39' W 094°58'8 7.1
2016-May-17 09:28N 29°45' W 095°04'2 1.6
2016-May-17 08:30N 29°46' W 095°05'1 0.1
2016-May-17 03:22N 29°46' W 095°05'1 1.4
2016-May-17 02:29N 29°46' W 095°06'  
Track history (hours):
 
Tides and Currents Weather Stations Pressure Air Temp Water Temp Dewpoint Dewpoint Depression Visibility Wind Speed Wind Dir Waves Ship Positions

William J. Weber

Owner: American Commercial Lines LLC, Jeffersonville, IN. More information available from US FCC via Universal Licensing System and Coast Guard Vessel Documentation Center.

Last reported at 2016-May-27 01:17 UTC. Time now 2016-May-27 10:24 UTC.
Position N 29°46' W 095°05'.

Length 23 m; draft 3 m.

Type: Towing. MMSI: 367057640.

Date/timePositionNaut miles runAvg speedWind from/ knotsBaromVisibWave heightAir tempDewpointWater temp
2016-May-27 01:17N 29°46' W 095°05'0 0.1
2016-May-26 20:33N 29°46' W 095°05'0 0.1
2016-May-26 18:18N 29°46' W 095°05'0 0.4
2016-May-26 17:29N 29°46' W 095°05'5 5.8
2016-May-26 16:33N 29°42' W 095°01'7 7.3
2016-May-26 15:33N 29°36' W 094°57'24 4.0
2016-May-26 09:30N 29°32' W 094°29'5 3.9
2016-May-26 08:14N 29°36' W 094°25'4 5.3
2016-May-26 07:24N 29°37' W 094°20'6 5.6
2016-May-26 06:23N 29°40' W 094°14'5 5.3
2016-May-26 05:25N 29°42' W 094°09'3 3.2
2016-May-26 04:33N 29°44' W 094°06'5 4.6
2016-May-26 03:32N 29°46' W 094°02'5 5.1
2016-May-26 02:32N 29°50' W 093°57'8 7.5
2016-May-26 01:31N 29°56' W 093°52'8 0.4
2016-May-25 04:32N 30°01' W 093°59'0 0.0
2016-May-25 02:27N 30°01' W 093°59'0 0.0
2016-May-25 01:33N 30°01' W 093°59'0 0.0
2016-May-24 23:21N 30°01' W 093°59'0 0.0
2016-May-24 21:09N 30°01' W 093°59'0 0.0
2016-May-24 20:26N 30°01' W 093°59'0 0.0
2016-May-24 19:11N 30°01' W 093°59'0 0.0
2016-May-24 16:24N 30°01' W 093°59'0 0.0
2016-May-24 15:32N 30°01' W 093°59'0 0.0
2016-May-24 14:32N 30°01' W 093°59'0 0.0
2016-May-24 13:30N 30°01' W 093°59'0 0.0
2016-May-24 12:30N 30°01' W 093°59'0 0.0
2016-May-24 11:33N 30°01' W 093°59'0 0.0
2016-May-24 10:33N 30°01' W 093°59'0 0.0
2016-May-24 09:33N 30°01' W 093°59'0 0.0
2016-May-24 08:33N 30°01' W 093°59'0 0.0
2016-May-24 07:33N 30°01' W 093°59'0 0.0
2016-May-24 06:33N 30°01' W 093°59'0 0.0
2016-May-24 05:31N 30°01' W 093°59'0 0.0
2016-May-24 04:30N 30°01' W 093°59'0 0.0
2016-May-24 03:32N 30°01' W 093°59'0 0.0
2016-May-24 02:17N 30°01' W 093°59'0 0.0
2016-May-24 01:24N 30°01' W 093°59'0 0.0
2016-May-24 00:30N 30°01' W 093°59'0 0.0
2016-May-23 23:14N 30°01' W 093°59'0 0.0
2016-May-23 16:06N 30°01' W 093°59'0 0.0
2016-May-23 15:12N 30°01' W 093°59'0 0.0
2016-May-23 14:30N 30°01' W 093°59'0 0.0
2016-May-23 13:30N 30°01' W 093°59'0 0.0
2016-May-23 12:27N 30°01' W 093°59'0 0.2
2016-May-23 11:32N 30°01' W 093°59'6 4.7
2016-May-23 10:12N 29°59' W 093°53'4 6.3
2016-May-23 09:30N 29°55' W 093°54'8 6.8
2016-May-23 08:24N 29°49' W 093°59'5 5.4
2016-May-23 07:30N 29°46' W 094°03'8 6.0
2016-May-23 06:06N 29°41' W 094°12'3 6.0
2016-May-23 05:31N 29°39' W 094°15'5 5.5
2016-May-23 04:32N 29°37' W 094°21'29 4.1
2016-May-22 21:33N 29°31' W 094°53'8 8.0
2016-May-22 20:33N 29°38' W 094°58'8 7.6
2016-May-22 19:33N 29°44' W 095°03'3 2.9
2016-May-22 18:33N 29°46' W 095°05'0 0.0
2016-May-22 14:16N 29°46' W 095°05'4 0.2
2016-May-21 17:32N 29°45' W 095°10'4 0.8
2016-May-21 12:27N 29°46' W 095°05'0 0.0
2016-May-21 11:29N 29°46' W 095°05'0 0.0
2016-May-21 04:09N 29°46' W 095°05'0 0.0
2016-May-21 02:31N 29°46' W 095°05'1 0.1
2016-May-20 18:33N 29°46' W 095°06'1 0.3
2016-May-20 16:18N 29°46' W 095°05'4 5.6
2016-May-20 15:32N 29°44' W 095°01'8 7.8
2016-May-20 14:33N 29°37' W 094°57'9 8.8
2016-May-20 13:31N 29°29' W 094°52'26 4.3
2016-May-20 07:21N 29°36' W 094°22'21 5.6
2016-May-20 03:33N 29°47' W 094°01'5 4.5
2016-May-20 02:33N 29°50' W 093°57'10 8.1
2016-May-20 01:21N 29°58' W 093°51'6 6.7
2016-May-20 00:26N 30°01' W 093°58'1 0.1
2016-May-19 12:21N 30°01' W 093°59'0 0.0
2016-May-19 11:34N 30°01' W 093°59'0 0.0
2016-May-19 10:34N 30°01' W 093°59'0 0.0
2016-May-19 09:28N 30°01' W 093°59'0 0.0
2016-May-18 13:34N 30°01' W 093°59'7 6.5
2016-May-18 12:33N 29°59' W 093°52'7 7.5
2016-May-18 11:33N 29°52' W 093°56'6 6.1
2016-May-18 10:30N 29°47' W 094°01'48 2.2
2016-May-17 12:17N 29°26' W 094°50'6 8.8
2016-May-17 11:33N 29°32' W 094°54'8 8.4
2016-May-17 10:32N 29°39' W 094°58'8 7.1
2016-May-17 09:28N 29°45' W 095°04'2 1.6
2016-May-17 08:30N 29°46' W 095°05'1 0.1
2016-May-17 03:22N 29°46' W 095°05'1 1.4
2016-May-17 02:29N 29°46' W 095°06'  

Dump ship's entire track history